Bujumbura International Airport Bujumbura BI
ICAO: HBBA
IATA: BJM
Category: Medium
Scheduled Services: Yes

Elevation: 2582 ft
TransAlt. 9500 ft.

Airport Communications:
APP:119.7
GND:121.9
TWR:118.1

HBBA Zoom In..

If you have problems with the map follow the link
https://www.worldairports.se/pages/airport.php?
ICAO=HBBA

Runways:

(A) RW 17 length 11811 ft width 148 ft
ILS 110.10 / hdg 174

(B) RW 35 length 11811 ft width 148 ft
---- / hdg 354

Location; HBBA
Day. 21 / Time. 10.00 Zulu
* QNH: 1014
* Temperature: 24° c. 75.2°f.
* Wind from: 000° Speed 00 kn.
Dewpoint: 21° c.
Visibility: 6000 m.
Clouds: Few 2000 ft.
Clouds: Broken 9000 ft.
No significant changes expected in the near future.

HBBA 211000Z 00000KT 6000 VCSH FEW020 BKN090 24/21 Q1014 NOSIG


Wind - Calm.

 
 
jpsmedia worldairports.se 2020   terms of use